createdAt,value
2023-05-19T00:00:25.590Z,100.00
2023-05-19T00:03:13.247Z,100.00
2023-05-19T00:05:45.738Z,100.00
2023-05-19T00:08:13.486Z,100.00
2023-05-19T00:10:40.545Z,100.00
2023-05-19T00:13:08.000Z,100.00
2023-05-19T00:15:35.498Z,100.00
2023-05-19T00:18:02.741Z,100.00
2023-05-19T00:20:29.581Z,100.00
2023-05-19T00:22:56.726Z,100.00
2023-05-19T00:25:23.550Z,100.00
2023-05-19T00:27:50.659Z,100.00
2023-05-19T00:30:17.524Z,100.00
2023-05-19T00:32:44.625Z,100.00
2023-05-19T00:35:11.721Z,100.00
2023-05-19T00:37:38.787Z,100.00
2023-05-19T00:40:06.672Z,100.00
2023-05-19T00:42:33.947Z,100.00
2023-05-19T00:45:00.738Z,100.00
2023-05-19T00:47:27.854Z,100.00
2023-05-19T00:49:54.580Z,100.00
2023-05-19T00:52:21.747Z,100.00
2023-05-19T00:54:49.119Z,100.00
2023-05-19T00:57:16.246Z,100.00
2023-05-19T00:59:43.024Z,100.00
2023-05-19T01:02:10.181Z,100.00
2023-05-19T01:04:37.977Z,100.00
2023-05-19T01:07:05.460Z,100.00
2023-05-19T01:09:32.381Z,100.00
2023-05-19T01:12:02.253Z,100.00
2023-05-19T01:14:29.636Z,100.00
2023-05-19T01:17:10.075Z,100.00
2023-05-19T01:19:48.509Z,100.00
2023-05-19T01:22:25.665Z,100.00
2023-05-19T01:25:11.473Z,100.00
2023-05-19T01:27:38.512Z,100.00
2023-05-19T01:30:11.230Z,100.00
2023-05-19T01:32:41.377Z,100.00
2023-05-19T01:35:09.403Z,100.00
2023-05-19T01:37:38.804Z,100.00
2023-05-19T01:40:07.007Z,100.00
2023-05-19T01:42:37.443Z,100.00
2023-05-19T01:45:06.653Z,100.00
2023-05-19T01:47:35.220Z,100.00
2023-05-19T01:50:02.080Z,100.00
2023-05-19T01:52:29.263Z,100.00
2023-05-19T01:54:56.025Z,100.00
2023-05-19T01:57:41.641Z,100.00
2023-05-19T02:00:31.920Z,100.00
2023-05-19T02:03:02.458Z,100.00
2023-05-19T02:05:34.115Z,100.00
2023-05-19T02:08:10.216Z,100.00
2023-05-19T02:10:38.859Z,100.00
2023-05-19T02:13:07.041Z,100.00
2023-05-19T02:15:38.813Z,100.00
2023-05-19T02:18:06.440Z,100.00
2023-05-19T02:20:33.571Z,100.00
2023-05-19T02:23:00.824Z,100.00
2023-05-19T02:25:27.613Z,100.00
2023-05-19T02:27:55.131Z,100.00
2023-05-19T02:30:21.879Z,100.00
2023-05-19T02:32:49.046Z,100.00
2023-05-19T02:35:15.998Z,100.00
2023-05-19T02:37:43.604Z,100.00
2023-05-19T02:42:59.325Z,100.00
2023-05-19T02:45:28.649Z,100.00
2023-05-19T02:47:55.858Z,100.00
2023-05-19T02:50:22.924Z,100.00
2023-05-19T02:52:49.652Z,100.00
2023-05-19T02:55:17.765Z,100.00
2023-05-19T02:57:44.645Z,100.00
2023-05-19T03:00:12.037Z,100.00
2023-05-19T03:02:39.883Z,100.00
2023-05-19T03:05:07.953Z,100.00
2023-05-19T03:07:35.072Z,100.00
2023-05-19T03:10:06.707Z,100.00
2023-05-19T03:12:33.851Z,100.00
2023-05-19T03:15:01.164Z,100.00
2023-05-19T03:17:33.798Z,100.00
2023-05-19T03:20:01.641Z,100.00
2023-05-19T03:22:28.558Z,100.00
2023-05-19T03:24:56.004Z,100.00
2023-05-19T03:27:22.855Z,100.00
2023-05-19T03:29:50.880Z,100.00
2023-05-19T03:32:17.798Z,100.00
2023-05-19T03:34:44.800Z,100.00
2023-05-19T03:37:11.585Z,100.00
2023-05-19T03:39:38.662Z,100.00
2023-05-19T03:42:05.670Z,100.00
2023-05-19T03:44:32.883Z,100.00
2023-05-19T03:46:59.676Z,100.00
2023-05-19T03:49:26.785Z,100.00
2023-05-19T03:51:53.636Z,100.00
2023-05-19T03:54:22.563Z,100.00
2023-05-19T03:56:55.280Z,100.00
2023-05-19T03:59:23.719Z,100.00
2023-05-19T04:01:51.492Z,100.00
2023-05-19T04:04:18.625Z,100.00
2023-05-19T04:06:45.774Z,100.00
2023-05-19T04:09:13.816Z,100.00
2023-05-19T04:11:40.972Z,100.00
2023-05-19T04:14:08.435Z,100.00
2023-05-19T04:16:35.391Z,100.00
2023-05-19T04:19:02.516Z,100.00
2023-05-19T04:21:29.321Z,100.00
2023-05-19T04:23:56.467Z,100.00
2023-05-19T04:26:25.029Z,100.00
2023-05-19T04:28:52.793Z,100.00
2023-05-19T04:31:21.796Z,100.00
2023-05-19T04:33:49.875Z,100.00
2023-05-19T04:36:20.845Z,100.00
2023-05-19T04:38:48.071Z,100.00
2023-05-19T04:41:16.589Z,100.00
2023-05-19T04:43:44.837Z,100.00
2023-05-19T04:46:13.609Z,100.00
2023-05-19T04:48:41.370Z,100.00
2023-05-19T04:51:08.337Z,100.00
2023-05-19T04:53:35.818Z,100.00
2023-05-19T04:56:02.730Z,100.00
2023-05-19T04:58:30.192Z,100.00
2023-05-19T05:00:57.933Z,100.00
2023-05-19T05:03:25.365Z,100.00
2023-05-19T05:05:52.336Z,100.00
2023-05-19T05:08:23.454Z,100.00
2023-05-19T05:10:51.655Z,100.00
2023-05-19T05:13:22.347Z,100.00
2023-05-19T05:15:49.402Z,100.00
2023-05-19T05:18:16.792Z,100.00
2023-05-19T05:20:44.134Z,100.00
2023-05-19T05:23:14.668Z,100.00
2023-05-19T05:25:42.189Z,100.00
2023-05-19T05:28:09.592Z,100.00
2023-05-19T05:30:36.442Z,100.00
2023-05-19T05:33:03.677Z,100.00
2023-05-19T05:35:31.057Z,100.00
2023-05-19T05:37:58.216Z,100.00
2023-05-19T05:40:25.017Z,100.00
2023-05-19T05:42:52.177Z,100.00
2023-05-19T05:45:18.999Z,100.00
2023-05-19T05:47:46.332Z,100.00
2023-05-19T05:50:13.398Z,100.00
2023-05-19T05:52:41.385Z,100.00
2023-05-19T05:55:08.494Z,100.00
2023-05-19T05:57:36.537Z,100.00
2023-05-19T06:00:06.077Z,100.00
2023-05-19T06:02:33.211Z,100.00
2023-05-19T06:05:00.462Z,100.00
2023-05-19T06:07:27.666Z,100.00
2023-05-19T06:09:54.410Z,100.00
2023-05-19T06:12:23.043Z,100.00
2023-05-19T06:14:49.857Z,100.00
2023-05-19T06:17:16.959Z,100.00
2023-05-19T06:19:43.881Z,100.00
2023-05-19T06:22:10.939Z,100.00
2023-05-19T06:24:39.462Z,100.00
2023-05-19T06:27:06.736Z,100.00
2023-05-19T06:29:33.490Z,100.00
2023-05-19T06:32:00.597Z,100.00
2023-05-19T06:34:27.549Z,100.00
2023-05-19T06:36:54.653Z,100.00
2023-05-19T06:39:21.400Z,100.00
2023-05-19T06:41:48.514Z,100.00
2023-05-19T06:44:15.365Z,100.00
2023-05-19T06:46:44.441Z,100.00
2023-05-19T06:49:11.323Z,100.00
2023-05-19T06:51:38.430Z,100.00
2023-05-19T06:54:05.205Z,100.00
2023-05-19T06:56:32.316Z,100.00
2023-05-19T06:58:59.059Z,100.00
2023-05-19T07:01:28.114Z,100.00
2023-05-19T07:03:55.420Z,100.00
2023-05-19T07:06:22.561Z,100.00
2023-05-19T07:08:49.754Z,100.00
2023-05-19T07:11:17.223Z,100.00
2023-05-19T07:13:43.948Z,100.00
2023-05-19T07:16:11.054Z,100.00
2023-05-19T07:18:37.934Z,100.00
2023-05-19T07:21:05.013Z,100.00
2023-05-19T07:23:31.769Z,100.00
2023-05-19T07:25:58.910Z,100.00
2023-05-19T07:28:25.782Z,100.00
2023-05-19T07:30:53.273Z,100.00
2023-05-19T07:33:20.067Z,100.00
2023-05-19T07:35:47.417Z,100.00
2023-05-19T07:38:14.202Z,100.00
2023-05-19T07:40:41.254Z,100.00
2023-05-19T07:43:08.052Z,100.00
2023-05-19T07:45:35.189Z,100.00
2023-05-19T07:48:02.089Z,100.00
2023-05-19T07:50:29.442Z,100.00
2023-05-19T07:52:56.644Z,100.00
2023-05-19T07:55:23.668Z,100.00
2023-05-19T07:57:51.015Z,100.00
2023-05-19T08:00:18.258Z,100.00
2023-05-19T08:02:45.111Z,100.00
2023-05-19T08:05:12.259Z,100.00
2023-05-19T08:07:39.060Z,100.00
2023-05-19T08:10:06.355Z,100.00
2023-05-19T08:12:33.111Z,100.00
2023-05-19T08:15:01.432Z,100.00
2023-05-19T08:17:28.696Z,100.00
2023-05-19T08:19:55.877Z,100.00
2023-05-19T08:22:22.679Z,100.00
2023-05-19T08:24:52.696Z,100.00
2023-05-19T08:27:19.448Z,100.00
2023-05-19T08:29:46.564Z,100.00
2023-05-19T08:32:13.615Z,100.00
2023-05-19T08:34:41.470Z,100.00
2023-05-19T08:37:08.389Z,100.00
2023-05-19T08:39:35.523Z,100.00
2023-05-19T08:42:02.595Z,100.00
2023-05-19T08:44:31.002Z,100.00
2023-05-19T08:47:00.938Z,100.00
2023-05-19T08:49:28.602Z,100.00
2023-05-19T08:52:14.253Z,100.00
2023-05-19T08:54:50.976Z,100.00
2023-05-19T08:57:18.298Z,100.00
2023-05-19T08:59:45.794Z,100.00
2023-05-19T09:02:14.103Z,100.00
2023-05-19T09:04:42.131Z,100.00
2023-05-19T09:07:09.477Z,100.00
2023-05-19T09:09:36.645Z,100.00
2023-05-19T09:12:04.119Z,100.00
2023-05-19T09:14:33.072Z,100.00
2023-05-19T09:16:59.925Z,97.89
2023-05-19T09:19:28.958Z,95.89
2023-05-19T09:22:03.516Z,98.38
2023-05-19T09:24:30.738Z,97.20
2023-05-19T09:26:59.230Z,99.60
2023-05-19T09:29:27.289Z,100.00
2023-05-19T09:31:55.986Z,100.00
2023-05-19T09:34:25.072Z,100.00
2023-05-19T09:36:53.448Z,100.00
2023-05-19T09:39:22.129Z,100.00
2023-05-19T09:41:56.241Z,100.00
2023-05-19T09:44:23.917Z,100.00
2023-05-19T09:46:51.452Z,100.00
2023-05-19T09:49:22.424Z,100.00
2023-05-19T09:52:10.499Z,100.00
2023-05-19T09:54:40.442Z,100.00
2023-05-19T09:57:08.561Z,100.00
2023-05-19T09:59:36.656Z,94.45
2023-05-19T10:02:03.712Z,97.53
2023-05-19T10:04:31.249Z,97.28
2023-05-19T10:07:01.573Z,95.98
2023-05-19T10:09:29.359Z,94.61
2023-05-19T10:11:56.842Z,96.35
2023-05-19T10:14:24.916Z,95.20
2023-05-19T10:16:52.897Z,95.78
2023-05-19T10:19:21.091Z,96.89
2023-05-19T10:21:47.936Z,96.97
2023-05-19T10:24:15.109Z,98.71
2023-05-19T10:26:44.469Z,99.05
2023-05-19T10:29:12.656Z,97.42
2023-05-19T10:31:40.510Z,98.23
2023-05-19T10:34:07.707Z,98.07
2023-05-19T10:36:38.092Z,97.51
2023-05-19T10:39:06.736Z,99.18
2023-05-19T10:41:52.227Z,98.55
2023-05-19T10:44:29.168Z,100.00
2023-05-19T10:46:57.115Z,100.00
2023-05-19T10:49:24.427Z,100.00
2023-05-19T10:51:56.514Z,99.78
2023-05-19T10:54:47.870Z,100.00
2023-05-19T10:57:16.406Z,100.00
2023-05-19T10:59:46.470Z,96.47
2023-05-19T11:02:33.524Z,97.12
2023-05-19T11:05:18.177Z,98.91
2023-05-19T11:07:55.249Z,100.00
2023-05-19T11:10:25.508Z,95.65
2023-05-19T11:12:52.417Z,94.68
2023-05-19T11:15:24.123Z,94.70
2023-05-19T11:17:52.313Z,96.58
2023-05-19T11:20:26.511Z,98.33
2023-05-19T11:23:09.381Z,100.00
2023-05-19T11:25:43.231Z,100.00
2023-05-19T11:28:15.505Z,100.00
2023-05-19T11:30:46.073Z,100.00
2023-05-19T11:33:13.800Z,98.24
2023-05-19T11:35:42.289Z,91.63
2023-05-19T11:38:09.079Z,92.28
2023-05-19T11:40:36.428Z,93.63
2023-05-19T11:43:03.294Z,95.16
2023-05-19T11:45:32.106Z,95.03
2023-05-19T11:48:02.128Z,93.77
2023-05-19T11:50:31.351Z,93.50
2023-05-19T11:53:00.288Z,92.50
2023-05-19T11:55:27.650Z,91.49
2023-05-19T11:58:04.048Z,94.92
2023-05-19T12:00:39.838Z,96.31
2023-05-19T12:03:07.729Z,97.32
2023-05-19T12:05:39.911Z,97.45
2023-05-19T12:08:09.094Z,93.69
2023-05-19T12:10:36.507Z,94.60
2023-05-19T12:13:03.482Z,93.85
2023-05-19T12:15:31.574Z,93.11
2023-05-19T12:17:59.331Z,97.40
2023-05-19T12:20:27.290Z,98.58
2023-05-19T12:22:57.312Z,98.40
2023-05-19T12:25:24.732Z,96.58
2023-05-19T12:27:56.833Z,95.51
2023-05-19T12:30:26.576Z,93.57
2023-05-19T12:32:54.018Z,92.81
2023-05-19T12:35:23.367Z,92.92
2023-05-19T12:37:50.742Z,92.92
2023-05-19T12:40:17.906Z,92.58
2023-05-19T12:42:45.655Z,89.64
2023-05-19T12:45:12.747Z,89.91
2023-05-19T12:47:39.694Z,89.42
2023-05-19T12:50:10.497Z,90.49
2023-05-19T12:52:47.489Z,87.26
2023-05-19T12:55:16.537Z,88.50
2023-05-19T12:57:56.890Z,89.15
2023-05-19T13:00:32.601Z,90.49
2023-05-19T13:03:05.402Z,91.68
2023-05-19T13:05:34.149Z,93.90
2023-05-19T13:08:04.870Z,93.77
2023-05-19T13:10:32.974Z,92.40
2023-05-19T13:13:02.985Z,94.35
2023-05-19T13:15:32.199Z,94.12
2023-05-19T13:18:00.368Z,93.66
2023-05-19T13:20:28.625Z,95.10
2023-05-19T13:22:56.092Z,96.25
2023-05-19T13:25:23.238Z,96.02
2023-05-19T13:27:50.056Z,94.32
2023-05-19T13:30:17.582Z,94.21
2023-05-19T13:32:45.092Z,90.59
2023-05-19T13:35:13.136Z,89.50
2023-05-19T13:37:40.155Z,91.06
2023-05-19T13:40:07.695Z,90.97
2023-05-19T13:42:35.247Z,91.89
2023-05-19T13:45:02.684Z,92.50
2023-05-19T13:47:29.669Z,91.21
2023-05-19T13:49:56.778Z,90.20
2023-05-19T13:52:23.904Z,89.15
2023-05-19T13:54:50.690Z,90.35
2023-05-19T13:57:17.868Z,90.76
2023-05-19T14:00:00.255Z,91.51
2023-05-19T14:02:30.122Z,90.93
2023-05-19T14:04:57.664Z,91.19
2023-05-19T14:07:25.887Z,91.79
2023-05-19T14:09:53.040Z,91.87
2023-05-19T14:12:21.592Z,91.98
2023-05-19T14:14:52.229Z,93.19
2023-05-19T14:17:19.290Z,93.10
2023-05-19T14:19:46.104Z,91.91
2023-05-19T14:22:13.541Z,92.56
2023-05-19T14:24:41.628Z,94.55
2023-05-19T14:27:08.747Z,96.25
2023-05-19T14:29:35.555Z,96.61
2023-05-19T14:32:06.000Z,97.48
2023-05-19T14:34:33.036Z,99.65
2023-05-19T14:37:00.173Z,99.84
2023-05-19T14:39:27.029Z,100.00
2023-05-19T14:41:54.163Z,100.00
2023-05-19T14:44:21.074Z,100.00
2023-05-19T14:46:48.127Z,100.00
2023-05-19T14:49:14.943Z,100.00
2023-05-19T14:51:42.037Z,100.00
2023-05-19T14:54:08.788Z,100.00
2023-05-19T14:56:35.981Z,100.00
2023-05-19T14:59:04.478Z,100.00
2023-05-19T15:01:31.600Z,100.00
2023-05-19T15:03:58.430Z,100.00
2023-05-19T15:06:25.691Z,100.00
2023-05-19T15:08:52.500Z,100.00
2023-05-19T15:11:19.738Z,100.00
2023-05-19T15:13:46.521Z,100.00
2023-05-19T15:16:16.857Z,100.00
2023-05-19T15:18:44.735Z,100.00
2023-05-19T15:21:12.078Z,100.00
2023-05-19T15:23:38.890Z,100.00
2023-05-19T15:26:06.001Z,100.00
2023-05-19T15:28:33.685Z,100.00
2023-05-19T15:31:00.822Z,100.00
2023-05-19T15:33:27.574Z,100.00
2023-05-19T15:35:54.633Z,100.00
2023-05-19T15:38:21.552Z,100.00
2023-05-19T15:40:48.624Z,100.00
2023-05-19T15:43:15.436Z,100.00
2023-05-19T15:45:42.535Z,100.00
2023-05-19T15:48:09.398Z,100.00
2023-05-19T15:50:36.864Z,100.00
2023-05-19T15:53:03.892Z,100.00
2023-05-19T15:55:31.011Z,100.00
2023-05-19T15:57:57.752Z,100.00
2023-05-19T16:00:24.859Z,100.00
2023-05-19T16:02:51.737Z,100.00
2023-05-19T16:05:19.116Z,100.00
2023-05-19T16:07:45.956Z,100.00
2023-05-19T16:10:13.210Z,100.00
2023-05-19T16:12:40.030Z,100.00
2023-05-19T16:15:07.348Z,100.00
2023-05-19T16:17:34.898Z,100.00
2023-05-19T16:20:02.147Z,100.00
2023-05-19T16:22:30.298Z,100.00
2023-05-19T16:24:57.360Z,100.00
2023-05-19T16:27:24.653Z,100.00
2023-05-19T16:29:51.890Z,100.00
2023-05-19T16:32:18.793Z,100.00
2023-05-19T16:34:45.932Z,100.00
2023-05-19T16:37:12.709Z,100.00
2023-05-19T16:39:40.450Z,100.00
2023-05-19T16:42:07.443Z,100.00
2023-05-19T16:44:34.487Z,100.00
2023-05-19T16:47:01.215Z,100.00
2023-05-19T16:49:28.467Z,100.00
2023-05-19T16:51:55.903Z,100.00
2023-05-19T16:54:23.535Z,100.00
2023-05-19T16:56:51.287Z,100.00
2023-05-19T16:59:18.470Z,100.00
2023-05-19T17:01:45.389Z,100.00
2023-05-19T17:04:13.281Z,100.00
2023-05-19T17:06:40.193Z,100.00
2023-05-19T17:09:07.851Z,100.00
2023-05-19T17:11:34.616Z,100.00
2023-05-19T17:14:04.213Z,100.00
2023-05-19T17:16:31.059Z,100.00
2023-05-19T17:18:58.195Z,100.00
2023-05-19T17:21:25.066Z,100.00
2023-05-19T17:23:52.207Z,100.00
2023-05-19T17:26:19.053Z,100.00
2023-05-19T17:28:46.217Z,100.00
2023-05-19T17:31:14.198Z,100.00
2023-05-19T17:33:41.740Z,100.00
2023-05-19T17:36:08.854Z,100.00
2023-05-19T17:38:40.262Z,100.00
2023-05-19T17:41:10.238Z,100.00
2023-05-19T17:43:37.540Z,100.00
2023-05-19T17:46:04.749Z,100.00
2023-05-19T17:48:32.183Z,100.00
2023-05-19T17:50:59.353Z,100.00
2023-05-19T17:53:26.772Z,100.00
2023-05-19T17:55:58.170Z,100.00
2023-05-19T17:58:25.439Z,100.00
2023-05-19T18:00:52.883Z,100.00
2023-05-19T18:03:20.633Z,100.00
2023-05-19T18:05:48.041Z,100.00
2023-05-19T18:08:16.623Z,100.00
2023-05-19T18:10:44.004Z,100.00
2023-05-19T18:13:11.467Z,100.00
2023-05-19T18:15:38.235Z,100.00
2023-05-19T18:18:07.550Z,100.00
2023-05-19T18:20:35.217Z,100.00
2023-05-19T18:23:02.787Z,100.00
2023-05-19T18:25:29.646Z,100.00
2023-05-19T18:27:56.854Z,100.00
2023-05-19T18:30:23.791Z,100.00
2023-05-19T18:32:50.867Z,100.00
2023-05-19T18:35:17.793Z,100.00
2023-05-19T18:37:44.827Z,100.00
2023-05-19T18:40:11.573Z,100.00
2023-05-19T18:42:38.576Z,100.00
2023-05-19T18:45:06.392Z,100.00
2023-05-19T18:47:33.503Z,100.00
2023-05-19T18:50:00.340Z,100.00
2023-05-19T18:52:28.732Z,100.00
2023-05-19T18:54:55.652Z,100.00
2023-05-19T18:57:22.753Z,100.00
2023-05-19T18:59:49.536Z,100.00
2023-05-19T19:02:16.604Z,100.00
2023-05-19T19:04:43.587Z,100.00
2023-05-19T19:07:10.884Z,100.00
2023-05-19T19:09:37.732Z,100.00
2023-05-19T19:12:04.849Z,100.00
2023-05-19T19:14:31.823Z,100.00
2023-05-19T19:16:58.937Z,100.00
2023-05-19T19:19:29.877Z,100.00
2023-05-19T19:21:57.145Z,100.00
2023-05-19T19:24:23.921Z,100.00
2023-05-19T19:26:51.066Z,100.00
2023-05-19T19:29:18.336Z,100.00
2023-05-19T19:31:45.655Z,100.00
2023-05-19T19:34:13.702Z,100.00
2023-05-19T19:36:41.044Z,100.00
2023-05-19T19:39:08.276Z,100.00
2023-05-19T19:41:35.449Z,100.00
2023-05-19T19:44:02.288Z,100.00
2023-05-19T19:46:29.406Z,100.00
2023-05-19T19:48:57.248Z,100.00
2023-05-19T19:51:24.345Z,100.00
2023-05-19T19:53:51.141Z,100.00
2023-05-19T19:56:18.209Z,100.00
2023-05-19T19:58:44.982Z,100.00
2023-05-19T20:01:12.038Z,100.00
2023-05-19T20:03:39.134Z,100.00
2023-05-19T20:06:07.121Z,100.00
2023-05-19T20:08:33.915Z,100.00
2023-05-19T20:11:01.146Z,100.00
2023-05-19T20:13:28.583Z,100.00
2023-05-19T20:15:56.930Z,100.00
2023-05-19T20:18:24.833Z,100.00
2023-05-19T20:20:51.937Z,100.00
2023-05-19T20:23:18.741Z,100.00
2023-05-19T20:26:02.374Z,100.00
2023-05-19T20:28:33.223Z,100.00
2023-05-19T20:31:00.326Z,100.00
2023-05-19T20:33:27.148Z,100.00
2023-05-19T20:35:54.191Z,100.00
2023-05-19T20:38:20.897Z,100.00
2023-05-19T20:40:47.986Z,100.00
2023-05-19T20:43:14.861Z,100.00
2023-05-19T20:45:45.117Z,100.00
2023-05-19T20:48:11.990Z,100.00
2023-05-19T20:50:39.454Z,100.00
2023-05-19T20:53:07.552Z,100.00
2023-05-19T20:55:36.343Z,100.00
2023-05-19T20:58:03.333Z,100.00
2023-05-19T21:00:30.798Z,100.00
2023-05-19T21:02:57.882Z,100.00
2023-05-19T21:05:25.090Z,100.00
2023-05-19T21:07:51.873Z,100.00
2023-05-19T21:10:18.917Z,100.00
2023-05-19T21:12:46.423Z,100.00
2023-05-19T21:15:13.643Z,100.00
2023-05-19T21:17:40.606Z,100.00
2023-05-19T21:20:08.095Z,100.00
2023-05-19T21:22:36.051Z,100.00
2023-05-19T21:25:03.839Z,100.00
2023-05-19T21:27:32.952Z,100.00
2023-05-19T21:30:00.274Z,100.00
2023-05-19T21:32:27.937Z,100.00
2023-05-19T21:34:55.177Z,100.00
2023-05-19T21:37:22.108Z,100.00
2023-05-19T21:39:49.166Z,100.00
2023-05-19T21:42:15.914Z,100.00
2023-05-19T21:44:42.945Z,100.00
2023-05-19T21:47:09.890Z,100.00
2023-05-19T21:49:38.395Z,100.00
2023-05-19T21:52:05.339Z,100.00
2023-05-19T21:54:32.471Z,100.00
2023-05-19T21:56:59.216Z,100.00
2023-05-19T21:59:26.517Z,100.00
2023-05-19T22:01:53.307Z,100.00
2023-05-19T22:04:21.635Z,100.00
2023-05-19T22:06:48.437Z,100.00
2023-05-19T22:09:15.514Z,100.00
2023-05-19T22:11:42.379Z,100.00
2023-05-19T22:14:09.519Z,100.00
2023-05-19T22:16:36.369Z,100.00
2023-05-19T22:19:03.623Z,100.00
2023-05-19T22:21:31.289Z,100.00
2023-05-19T22:23:58.298Z,100.00
2023-05-19T22:26:25.257Z,100.00
2023-05-19T22:28:52.404Z,100.00
2023-05-19T22:31:19.330Z,100.00
2023-05-19T22:33:46.374Z,100.00
2023-05-19T22:36:13.583Z,100.00
2023-05-19T22:38:40.853Z,100.00
2023-05-19T22:41:07.600Z,100.00
2023-05-19T22:43:34.657Z,100.00
2023-05-19T22:46:01.591Z,100.00
2023-05-19T22:48:28.594Z,100.00
2023-05-19T22:50:55.546Z,100.00
2023-05-19T22:53:22.661Z,100.00
2023-05-19T22:55:49.440Z,100.00
2023-05-19T22:58:16.438Z,100.00
2023-05-19T23:00:43.191Z,100.00
2023-05-19T23:03:11.493Z,100.00
2023-05-19T23:05:38.346Z,100.00
2023-05-19T23:08:05.592Z,100.00
2023-05-19T23:10:32.333Z,100.00
2023-05-19T23:12:59.454Z,100.00
2023-05-19T23:15:26.212Z,100.00
2023-05-19T23:17:53.313Z,100.00
2023-05-19T23:20:20.159Z,100.00
2023-05-19T23:22:47.290Z,100.00
2023-05-19T23:25:14.116Z,100.00
2023-05-19T23:27:41.382Z,100.00
2023-05-19T23:30:08.495Z,100.00
2023-05-19T23:32:35.786Z,100.00
2023-05-19T23:35:16.138Z,100.00
2023-05-19T23:37:43.177Z,100.00
2023-05-19T23:40:10.296Z,100.00
2023-05-19T23:42:37.330Z,100.00
2023-05-19T23:45:04.748Z,100.00
2023-05-19T23:47:31.874Z,100.00
2023-05-19T23:49:58.703Z,100.00
2023-05-19T23:52:25.926Z,100.00
2023-05-19T23:54:52.773Z,100.00
2023-05-19T23:57:19.868Z,100.00
2023-05-19T23:59:46.717Z,100.00
